createdAt,value
2022-09-10T00:02:15.991Z,38.55
2022-09-10T00:04:42.985Z,37.60
2022-09-10T00:07:09.998Z,34.10
2022-09-10T00:09:36.879Z,34.42
2022-09-10T00:12:04.138Z,31.83
2022-09-10T00:14:31.110Z,29.33
2022-09-10T00:16:58.020Z,25.10
2022-09-10T00:19:25.178Z,21.73
2022-09-10T00:21:52.255Z,19.88
2022-09-10T00:24:19.261Z,19.92
2022-09-10T00:26:46.582Z,18.33
2022-09-10T00:29:15.970Z,19.33
2022-09-10T00:31:43.608Z,20.77
2022-09-10T00:34:12.288Z,23.08
2022-09-10T00:36:41.219Z,25.90
2022-09-10T00:39:11.162Z,26.92
2022-09-10T00:41:40.851Z,29.48
2022-09-10T00:44:39.999Z,33.05
2022-09-10T00:47:29.421Z,33.20
2022-09-10T00:50:20.063Z,33.85
2022-09-10T00:52:47.642Z,31.90
2022-09-10T00:55:15.927Z,33.17
2022-09-10T00:57:43.465Z,32.00
2022-09-10T01:00:13.041Z,34.08
2022-09-10T01:02:41.843Z,35.17
2022-09-10T01:05:10.678Z,36.47
2022-09-10T01:07:38.258Z,37.22
2022-09-10T01:10:13.091Z,39.47
2022-09-10T01:13:01.908Z,36.97
2022-09-10T01:15:40.386Z,37.92
2022-09-10T01:18:46.889Z,36.35
2022-09-10T01:21:23.558Z,35.35
2022-09-10T01:23:58.199Z,35.28
2022-09-10T01:26:34.880Z,40.50
2022-09-10T01:29:39.150Z,40.10
2022-09-10T01:32:13.115Z,37.08
2022-09-10T01:34:58.750Z,37.80
2022-09-10T01:37:29.806Z,36.55
2022-09-10T01:39:58.199Z,40.97
2022-09-10T01:42:27.729Z,44.17
2022-09-10T01:44:57.993Z,43.58
2022-09-10T01:47:38.763Z,38.65
2022-09-10T01:50:30.177Z,51.38
2022-09-10T01:53:04.922Z,46.15
2022-09-10T01:55:41.911Z,43.58
2022-09-10T01:58:33.664Z,39.45
2022-09-10T02:01:28.924Z,42.47
2022-09-10T02:04:00.317Z,40.58
2022-09-10T02:06:29.857Z,51.22
2022-09-10T02:08:59.909Z,53.80
2022-09-10T02:11:26.982Z,65.45
2022-09-10T02:13:55.233Z,59.47
2022-09-10T02:16:35.374Z,54.47
2022-09-10T02:19:03.429Z,47.78
2022-09-10T02:21:32.240Z,42.28
2022-09-10T02:24:06.139Z,52.92
2022-09-10T02:26:35.032Z,46.50
2022-09-10T02:29:02.419Z,46.42
2022-09-10T02:31:30.090Z,44.63
2022-09-10T02:33:57.042Z,44.47
2022-09-10T02:36:26.899Z,44.28
2022-09-10T02:38:58.770Z,40.03
2022-09-10T02:41:28.277Z,46.17
2022-09-10T02:43:55.689Z,48.10
2022-09-10T02:46:22.739Z,53.97
2022-09-10T02:48:49.995Z,46.47
2022-09-10T02:51:16.947Z,46.20
2022-09-10T02:53:44.476Z,48.10
2022-09-10T02:56:13.735Z,45.25
2022-09-10T02:58:42.630Z,41.75
2022-09-10T03:01:15.649Z,40.70
2022-09-10T03:03:55.153Z,42.67
2022-09-10T03:06:23.371Z,42.03
2022-09-10T03:08:51.860Z,45.35
2022-09-10T03:11:18.939Z,41.53
2022-09-10T03:13:46.401Z,41.67
2022-09-10T03:16:14.215Z,42.05
2022-09-10T03:18:41.873Z,40.40
2022-09-10T03:21:20.262Z,42.22
2022-09-10T03:23:49.570Z,40.75
2022-09-10T03:26:22.913Z,40.30
2022-09-10T03:28:50.227Z,43.38
2022-09-10T03:31:20.028Z,43.55
2022-09-10T03:33:49.318Z,40.13
2022-09-10T03:36:18.176Z,43.80
2022-09-10T03:38:47.168Z,49.90
2022-09-10T03:41:14.469Z,47.05
2022-09-10T03:43:41.561Z,50.72
2022-09-10T03:46:12.180Z,52.88
2022-09-10T03:48:43.762Z,50.17
2022-09-10T03:51:11.549Z,48.67
2022-09-10T03:53:39.519Z,54.25
2022-09-10T03:56:08.692Z,44.20
2022-09-10T03:58:36.022Z,56.97
2022-09-10T04:01:04.490Z,57.33
2022-09-10T04:03:35.125Z,53.73
2022-09-10T04:06:02.162Z,46.15
2022-09-10T04:08:29.153Z,57.70
2022-09-10T04:11:01.929Z,59.33
2022-09-10T04:13:29.181Z,52.72
2022-09-10T04:15:56.399Z,52.38
2022-09-10T04:18:24.029Z,60.50
2022-09-10T04:20:51.378Z,48.83
2022-09-10T04:23:18.271Z,55.85
2022-09-10T04:25:46.707Z,50.97
2022-09-10T04:28:13.789Z,56.22
2022-09-10T04:30:40.900Z,50.03
2022-09-10T04:33:09.925Z,52.10
2022-09-10T04:35:36.924Z,56.50
2022-09-10T04:38:07.238Z,55.40
2022-09-10T04:43:05.828Z,58.58
2022-09-10T04:45:37.216Z,57.53
2022-09-10T04:48:07.267Z,64.75
2022-09-10T04:50:35.921Z,52.60
2022-09-10T04:53:28.959Z,56.15
2022-09-10T04:55:57.885Z,58.28
2022-09-10T04:58:24.821Z,52.85
2022-09-10T05:00:52.207Z,51.17
2022-09-10T05:03:20.222Z,56.10
2022-09-10T05:05:48.122Z,46.17
2022-09-10T05:08:15.338Z,53.53
2022-09-10T05:10:49.401Z,48.47
2022-09-10T05:13:16.934Z,46.25
2022-09-10T05:15:46.154Z,44.53
2022-09-10T05:18:16.794Z,49.22
2022-09-10T05:20:47.436Z,46.42
2022-09-10T05:23:14.510Z,50.53
2022-09-10T05:25:44.397Z,48.17
2022-09-10T05:28:11.561Z,47.10
2022-09-10T05:30:38.658Z,54.72
2022-09-10T05:33:05.989Z,44.15
2022-09-10T05:35:34.768Z,48.53
2022-09-10T05:38:02.123Z,40.72
2022-09-10T05:40:32.497Z,44.72
2022-09-10T05:43:00.301Z,44.28
2022-09-10T05:45:27.555Z,39.90
2022-09-10T05:47:57.430Z,36.63
2022-09-10T05:50:24.695Z,34.90
2022-09-10T05:52:53.225Z,34.72
2022-09-10T05:55:20.984Z,35.95
2022-09-10T05:57:49.347Z,33.08
2022-09-10T06:00:19.439Z,35.10
2022-09-10T06:02:57.487Z,30.10
2022-09-10T06:05:29.299Z,32.47
2022-09-10T06:07:57.109Z,32.97
2022-09-10T06:10:24.079Z,30.55
2022-09-10T06:12:52.836Z,27.58
2022-09-10T06:15:21.308Z,29.38
2022-09-10T06:17:56.650Z,29.47
2022-09-10T06:20:24.620Z,30.05
2022-09-10T06:22:52.396Z,27.98
2022-09-10T06:25:19.351Z,28.50
2022-09-10T06:27:47.743Z,27.52
2022-09-10T06:30:16.750Z,27.55
2022-09-10T06:32:47.337Z,27.00
2022-09-10T06:35:14.975Z,26.48
2022-09-10T06:37:43.376Z,27.40
2022-09-10T06:40:12.206Z,28.92
2022-09-10T06:42:41.059Z,28.48
2022-09-10T06:45:13.945Z,25.98
2022-09-10T06:48:37.756Z,23.55
2022-09-10T06:50:55.828Z,27.08
2022-09-10T06:53:28.867Z,24.38
2022-09-10T06:55:56.589Z,25.27
2022-09-10T06:58:24.980Z,25.13
2022-09-10T07:00:52.836Z,25.08
2022-09-10T07:03:22.267Z,25.25
2022-09-10T07:05:50.816Z,23.40
2022-09-10T07:08:18.277Z,23.63
2022-09-10T07:13:17.566Z,21.75
2022-09-10T07:15:46.695Z,22.67
2022-09-10T07:18:15.763Z,20.73
2022-09-10T07:20:45.019Z,21.35
2022-09-10T07:23:14.206Z,20.52
2022-09-10T07:25:42.106Z,21.45
2022-09-10T07:28:18.208Z,21.30
2022-09-10T07:30:47.672Z,20.38
2022-09-10T07:33:16.548Z,19.63
2022-09-10T07:35:45.116Z,19.00
2022-09-10T07:38:17.526Z,17.90
2022-09-10T07:40:48.451Z,17.05
2022-09-10T07:43:16.706Z,18.13
2022-09-10T07:45:44.178Z,18.13
2022-09-10T07:48:12.045Z,17.58
2022-09-10T07:50:39.899Z,17.20
2022-09-10T07:53:07.411Z,17.13
2022-09-10T07:55:35.778Z,16.15
2022-09-10T07:58:03.497Z,16.00
2022-09-10T08:00:31.930Z,16.83
2022-09-10T08:03:05.516Z,16.95
2022-09-10T08:05:33.503Z,17.17
2022-09-10T08:08:01.799Z,15.90
2022-09-10T08:10:29.749Z,16.92
2022-09-10T08:12:58.130Z,16.50
2022-09-10T08:15:25.440Z,16.40
2022-09-10T08:17:53.305Z,16.05
2022-09-10T08:20:25.323Z,15.23
2022-09-10T08:22:53.339Z,15.45
2022-09-10T08:25:21.685Z,16.20
2022-09-10T08:27:49.104Z,15.52
2022-09-10T08:30:16.475Z,17.30
2022-09-10T08:32:43.927Z,17.02
2022-09-10T08:35:14.743Z,16.25
2022-09-10T08:37:42.210Z,14.55
2022-09-10T08:40:12.495Z,15.55
2022-09-10T08:42:49.434Z,15.65
2022-09-10T08:45:32.758Z,16.70
2022-09-10T08:48:13.286Z,16.33
2022-09-10T08:50:52.974Z,17.23
2022-09-10T08:53:36.730Z,17.17
2022-09-10T08:56:11.425Z,16.93
2022-09-10T08:58:42.822Z,16.15
2022-09-10T09:01:15.724Z,17.85
2022-09-10T09:03:47.659Z,17.50
2022-09-10T09:06:41.278Z,18.65
2022-09-10T09:09:14.838Z,17.38
2022-09-10T09:11:49.224Z,17.90
2022-09-10T09:14:53.629Z,16.67
2022-09-10T09:17:42.860Z,21.73
2022-09-10T09:20:20.250Z,20.13
2022-09-10T09:22:53.585Z,20.52
2022-09-10T09:26:04.201Z,20.42
2022-09-10T09:28:47.344Z,19.88
2022-09-10T09:31:23.700Z,18.98
2022-09-10T09:33:56.554Z,18.58
2022-09-10T09:36:32.788Z,18.85
2022-09-10T09:39:03.060Z,19.98
2022-09-10T09:41:39.400Z,21.60
2022-09-10T09:44:19.657Z,21.88
2022-09-10T09:46:46.742Z,21.52
2022-09-10T09:49:17.641Z,22.13
2022-09-10T09:51:47.501Z,22.67
2022-09-10T09:54:51.417Z,20.83
2022-09-10T09:57:15.614Z,22.10
2022-09-10T09:59:42.598Z,22.50
2022-09-10T10:02:15.640Z,22.13
2022-09-10T10:05:13.677Z,21.85
2022-09-10T10:07:40.610Z,22.67
2022-09-10T10:10:12.302Z,21.10
2022-09-10T10:12:42.596Z,22.15
2022-09-10T10:15:36.781Z,22.17
2022-09-10T10:18:31.982Z,21.08
2022-09-10T10:21:37.024Z,21.95
2022-09-10T10:24:04.272Z,22.83
2022-09-10T10:26:33.144Z,21.30
2022-09-10T10:29:06.401Z,22.80
2022-09-10T10:31:37.234Z,22.58
2022-09-10T10:34:10.476Z,22.55
2022-09-10T10:37:02.033Z,23.13
2022-09-10T10:39:38.742Z,22.23
2022-09-10T10:42:34.363Z,21.83
2022-09-10T10:45:28.997Z,20.25
2022-09-10T10:48:10.132Z,20.55
2022-09-10T10:50:44.751Z,19.45
2022-09-10T10:53:48.510Z,20.10
2022-09-10T10:56:30.293Z,18.88
2022-09-10T10:59:23.761Z,19.88
2022-09-10T11:01:56.466Z,19.88
2022-09-10T11:04:29.978Z,22.13
2022-09-10T11:07:04.692Z,20.48
2022-09-10T11:09:44.351Z,21.13
2022-09-10T11:12:20.352Z,21.55
2022-09-10T11:14:53.661Z,21.80
2022-09-10T11:17:46.576Z,25.63
2022-09-10T11:20:34.549Z,26.17
2022-09-10T11:23:08.091Z,24.23
2022-09-10T11:25:53.255Z,24.42
2022-09-10T11:28:25.952Z,24.58
2022-09-10T11:31:02.964Z,23.45
2022-09-10T11:33:37.593Z,24.73
2022-09-10T11:36:43.381Z,24.58
2022-09-10T11:39:42.125Z,25.38
2022-09-10T11:42:46.101Z,24.50
2022-09-10T11:45:39.810Z,23.55
2022-09-10T11:48:40.058Z,23.65
2022-09-10T11:51:26.915Z,23.58
2022-09-10T11:53:54.914Z,24.08
2022-09-10T11:56:46.652Z,22.65
2022-09-10T11:59:25.552Z,22.60
2022-09-10T12:02:14.429Z,23.88
2022-09-10T12:05:06.351Z,23.88
2022-09-10T12:07:56.867Z,23.52
2022-09-10T12:10:55.627Z,24.05
2022-09-10T12:13:22.794Z,30.90
2022-09-10T12:16:00.010Z,27.95
2022-09-10T12:18:31.224Z,26.88
2022-09-10T12:20:59.892Z,27.92
2022-09-10T12:23:33.534Z,24.25
2022-09-10T12:26:05.715Z,25.73
2022-09-10T12:28:51.255Z,23.02
2022-09-10T12:31:20.524Z,23.98
2022-09-10T12:33:47.578Z,22.20
2022-09-10T12:36:35.653Z,21.95
2022-09-10T12:39:20.713Z,21.65
2022-09-10T12:41:47.553Z,19.88
2022-09-10T12:44:36.455Z,19.98
2022-09-10T12:47:15.996Z,17.98
2022-09-10T12:49:57.335Z,22.15
2022-09-10T12:52:42.955Z,23.70
2022-09-10T12:55:23.070Z,23.80
2022-09-10T12:58:05.454Z,25.17
2022-09-10T13:01:09.585Z,24.73
2022-09-10T13:03:37.776Z,25.30
2022-09-10T13:06:07.239Z,26.42
2022-09-10T13:08:45.453Z,27.10
2022-09-10T13:11:23.274Z,29.05
2022-09-10T13:14:12.292Z,29.55
2022-09-10T13:16:40.971Z,30.05
2022-09-10T13:19:13.836Z,30.90
2022-09-10T13:21:40.803Z,30.98
2022-09-10T13:24:34.499Z,27.98
2022-09-10T13:27:16.812Z,25.35
2022-09-10T13:29:46.134Z,24.48
2022-09-10T13:32:34.888Z,26.92
2022-09-10T13:35:04.354Z,27.30
2022-09-10T13:37:50.483Z,25.77
2022-09-10T13:40:39.382Z,26.05
2022-09-10T13:43:31.272Z,27.52
2022-09-10T13:46:15.051Z,24.75
2022-09-10T13:48:46.756Z,24.60
2022-09-10T13:51:31.038Z,25.60
2022-09-10T13:54:04.114Z,25.60
2022-09-10T13:56:32.407Z,25.67
2022-09-10T13:59:03.585Z,25.35
2022-09-10T14:01:50.661Z,25.52
2022-09-10T14:04:39.098Z,25.17
2022-09-10T14:07:20.258Z,25.85
2022-09-10T14:09:56.866Z,26.60
2022-09-10T14:12:28.208Z,25.08
2022-09-10T14:14:59.368Z,26.67
2022-09-10T14:17:31.572Z,26.08
2022-09-10T14:20:06.044Z,26.60
2022-09-10T14:22:33.428Z,25.38
2022-09-10T14:25:02.725Z,27.45
2022-09-10T14:27:32.588Z,26.83
2022-09-10T14:30:21.224Z,28.85
2022-09-10T14:32:48.453Z,27.17
2022-09-10T14:35:44.292Z,27.88
2022-09-10T14:38:31.170Z,27.08
2022-09-10T14:41:11.082Z,27.90
2022-09-10T14:43:40.698Z,27.65
2022-09-10T14:46:10.306Z,28.08
2022-09-10T14:48:41.210Z,26.95
2022-09-10T14:51:12.386Z,29.70
2022-09-10T14:53:40.953Z,29.90
2022-09-10T14:56:39.748Z,30.15
2022-09-10T14:59:15.367Z,28.92
2022-09-10T15:01:48.241Z,30.38
2022-09-10T15:04:18.480Z,28.88
2022-09-10T15:06:46.153Z,28.52
2022-09-10T15:09:13.991Z,29.30
2022-09-10T15:11:50.892Z,28.83
2022-09-10T15:14:18.683Z,29.48
2022-09-10T15:16:46.982Z,29.27
2022-09-10T15:19:14.463Z,28.02
2022-09-10T15:21:41.419Z,29.45
2022-09-10T15:24:15.914Z,29.83
2022-09-10T15:26:43.364Z,30.60
2022-09-10T15:29:11.132Z,30.73
2022-09-10T15:31:38.872Z,30.05
2022-09-10T15:34:07.648Z,31.00
2022-09-10T15:36:37.083Z,28.15
2022-09-10T15:39:05.485Z,28.90
2022-09-10T15:41:32.385Z,29.88
2022-09-10T15:43:59.499Z,30.88
2022-09-10T15:46:26.505Z,29.75
2022-09-10T15:48:55.631Z,28.25
2022-09-10T15:51:24.034Z,29.60
2022-09-10T15:53:52.706Z,29.20
2022-09-10T15:56:21.308Z,29.15
2022-09-10T15:58:55.157Z,29.13
2022-09-10T16:01:25.319Z,31.20
2022-09-10T16:03:55.962Z,32.60
2022-09-10T16:06:25.813Z,31.23
2022-09-10T16:08:57.500Z,30.20
2022-09-10T16:11:25.462Z,32.60
2022-09-10T16:13:52.815Z,33.22
2022-09-10T16:16:22.506Z,34.72
2022-09-10T16:18:51.723Z,30.42
2022-09-10T16:21:22.476Z,27.77
2022-09-10T16:23:51.894Z,28.42
2022-09-10T16:26:24.336Z,27.77
2022-09-10T16:28:52.807Z,27.90
2022-09-10T16:31:23.052Z,28.58
2022-09-10T16:33:54.663Z,28.73
2022-09-10T16:38:53.569Z,29.88
2022-09-10T16:41:21.039Z,28.77
2022-09-10T16:43:47.959Z,28.95
2022-09-10T16:46:15.039Z,29.30
2022-09-10T16:48:43.026Z,31.33
2022-09-10T16:51:15.865Z,31.80
2022-09-10T16:53:44.402Z,32.47
2022-09-10T16:56:16.449Z,32.08
2022-09-10T16:58:47.717Z,30.67
2022-09-10T17:01:15.881Z,32.22
2022-09-10T17:03:50.757Z,10.30
2022-09-10T17:06:24.499Z,29.08
2022-09-10T17:08:56.228Z,27.95
2022-09-10T17:11:26.114Z,27.70
2022-09-10T17:13:54.303Z,23.98
2022-09-10T17:16:21.274Z,33.28
2022-09-10T17:18:53.051Z,33.90
2022-09-10T17:21:19.955Z,36.50
2022-09-10T17:23:46.955Z,41.38
2022-09-10T17:26:13.882Z,42.33
2022-09-10T17:28:41.453Z,40.58
2022-09-10T17:31:08.691Z,43.70
2022-09-10T17:33:35.675Z,45.53
2022-09-10T17:36:04.149Z,37.15
2022-09-10T17:38:33.836Z,40.53
2022-09-10T17:41:02.796Z,37.58
2022-09-10T17:43:34.210Z,36.72
2022-09-10T17:46:09.462Z,41.38
2022-09-10T17:48:38.018Z,43.20
2022-09-10T17:51:06.269Z,34.88
2022-09-10T17:53:34.149Z,37.38
2022-09-10T17:56:05.534Z,34.88
2022-09-10T17:58:33.382Z,35.10
2022-09-10T18:01:01.944Z,34.22
2022-09-10T18:03:29.301Z,36.83
2022-09-10T18:05:57.139Z,38.97
2022-09-10T18:08:24.208Z,34.35
2022-09-10T18:11:05.777Z,31.55
2022-09-10T18:13:36.445Z,33.00
2022-09-10T18:16:11.742Z,33.65
2022-09-10T18:18:39.513Z,37.80
2022-09-10T18:21:27.284Z,37.17
2022-09-10T18:24:00.548Z,38.42
2022-09-10T18:26:32.566Z,37.25
2022-09-10T18:31:32.583Z,37.45
2022-09-10T18:34:00.921Z,40.45
2022-09-10T18:36:32.871Z,42.85
2022-09-10T18:41:38.595Z,43.92
2022-09-10T18:44:08.922Z,45.72
2022-09-10T18:46:36.506Z,45.92
2022-09-10T18:49:05.445Z,51.67
2022-09-10T18:51:32.735Z,50.05
2022-09-10T18:54:01.429Z,46.65
2022-09-10T18:56:30.553Z,46.45
2022-09-10T18:59:01.350Z,46.13
2022-09-10T19:01:29.807Z,44.05
2022-09-10T19:03:59.726Z,46.45
2022-09-10T19:06:29.205Z,45.83
2022-09-10T19:08:59.878Z,48.60
2022-09-10T19:11:33.092Z,48.25
2022-09-10T19:14:01.877Z,45.97
2022-09-10T19:16:30.423Z,49.10
2022-09-10T19:19:02.939Z,51.83
2022-09-10T19:21:32.870Z,50.88
2022-09-10T19:24:00.955Z,51.05
2022-09-10T19:26:30.844Z,48.65
2022-09-10T19:28:59.364Z,49.05
2022-09-10T19:31:28.316Z,50.75
2022-09-10T19:34:06.619Z,51.80
2022-09-10T19:36:35.734Z,49.25
2022-09-10T19:39:09.070Z,49.15
2022-09-10T19:41:39.785Z,54.85
2022-09-10T19:44:08.934Z,53.85
2022-09-10T19:46:37.428Z,51.42
2022-09-10T19:49:07.014Z,52.35
2022-09-10T19:51:36.995Z,51.30
2022-09-10T19:54:04.654Z,49.45
2022-09-10T19:56:35.016Z,51.63
2022-09-10T19:59:08.840Z,50.47
2022-09-10T20:01:43.776Z,54.17
2022-09-10T20:04:11.877Z,53.05
2022-09-10T20:06:39.484Z,50.88
2022-09-10T20:09:07.630Z,49.60
2022-09-10T20:11:35.368Z,49.83
2022-09-10T20:14:16.142Z,53.17
2022-09-10T20:16:45.295Z,51.03
2022-09-10T20:19:14.561Z,51.83
2022-09-10T20:21:42.342Z,48.63
2022-09-10T20:24:09.879Z,47.75
2022-09-10T20:26:38.341Z,43.88
2022-09-10T20:29:12.475Z,49.55
2022-09-10T20:31:41.388Z,45.88
2022-09-10T20:34:14.281Z,50.72
2022-09-10T20:36:45.225Z,37.78
2022-09-10T20:39:17.227Z,36.75
2022-09-10T20:41:45.259Z,36.65
2022-09-10T20:44:14.050Z,36.80
2022-09-10T20:46:41.965Z,36.90
2022-09-10T20:49:11.095Z,33.17
2022-09-10T20:51:40.514Z,34.80
2022-09-10T20:54:10.903Z,33.08
2022-09-10T20:56:38.158Z,34.53
2022-09-10T20:59:05.333Z,34.15
2022-09-10T21:01:33.162Z,35.67
2022-09-10T21:04:01.834Z,35.92
2022-09-10T21:06:31.454Z,34.58
2022-09-10T21:09:00.736Z,37.67
2022-09-10T21:11:30.827Z,37.45
2022-09-10T21:14:00.738Z,36.50
2022-09-10T21:16:29.777Z,34.60
2022-09-10T21:19:01.441Z,34.10
2022-09-10T21:21:30.355Z,35.75
2022-09-10T21:23:59.887Z,34.80
2022-09-10T21:26:32.379Z,39.70
2022-09-10T21:29:02.336Z,35.40
2022-09-10T21:31:30.363Z,35.22
2022-09-10T21:34:02.788Z,37.17
2022-09-10T21:36:32.368Z,34.80
2022-09-10T21:39:01.570Z,36.65
2022-09-10T21:41:39.969Z,36.20
2022-09-10T21:44:20.079Z,37.47
2022-09-10T21:46:47.567Z,39.33
2022-09-10T21:49:14.789Z,37.00
2022-09-10T21:51:42.487Z,37.45
2022-09-10T21:54:18.779Z,38.67
2022-09-10T21:56:46.083Z,38.13
2022-09-10T21:59:14.597Z,37.78
2022-09-10T22:01:43.995Z,38.10
2022-09-10T22:04:11.528Z,38.80
2022-09-10T22:06:38.979Z,38.70
2022-09-10T22:09:08.290Z,42.35
2022-09-10T22:11:45.836Z,39.50
2022-09-10T22:14:18.294Z,39.67
2022-09-10T22:16:45.883Z,40.13
2022-09-10T22:19:15.646Z,37.83
2022-09-10T22:21:42.630Z,39.47
2022-09-10T22:24:11.404Z,39.08
2022-09-10T22:26:43.355Z,39.92
2022-09-10T22:29:10.925Z,39.58
2022-09-10T22:31:38.200Z,39.78
2022-09-10T22:34:11.387Z,38.03
2022-09-10T22:36:39.702Z,40.25
2022-09-10T22:39:08.957Z,39.70
2022-09-10T22:41:36.573Z,40.63
2022-09-10T22:44:03.613Z,39.72
2022-09-10T22:46:31.158Z,38.00
2022-09-10T22:48:58.246Z,35.38
2022-09-10T22:51:27.907Z,38.83
2022-09-10T22:53:55.790Z,40.38
2022-09-10T22:56:24.816Z,39.22
2022-09-10T22:58:52.803Z,39.80
2022-09-10T23:01:22.762Z,39.88
2022-09-10T23:03:50.368Z,37.08
2022-09-10T23:06:19.846Z,40.95
2022-09-10T23:08:50.356Z,36.78
2022-09-10T23:11:27.236Z,34.97
2022-09-10T23:13:59.663Z,35.60
2022-09-10T23:16:29.094Z,34.70
2022-09-10T23:18:57.637Z,36.10
2022-09-10T23:21:26.804Z,35.13
2022-09-10T23:23:56.447Z,36.22
2022-09-10T23:26:24.385Z,34.60
2022-09-10T23:28:51.770Z,36.45
2022-09-10T23:31:20.923Z,35.83
2022-09-10T23:33:54.517Z,37.50
2022-09-10T23:36:21.966Z,37.92
2022-09-10T23:38:49.087Z,39.30
2022-09-10T23:41:16.577Z,37.38
2022-09-10T23:43:44.574Z,36.35
2022-09-10T23:46:12.493Z,36.20
2022-09-10T23:48:40.069Z,34.38
2022-09-10T23:51:07.137Z,34.85
2022-09-10T23:53:34.138Z,33.45
2022-09-10T23:56:02.949Z,34.05
2022-09-10T23:58:30.116Z,33.35
